To NAV CANADA Home Page Login to a new session Search on AWWS site Feedback and Comments Disclaimer Vers la page française équivalente Tips FAQ What's new on the site To the Forecasts and Observations / NOTAM section To "File a Flight Plan" website Publications and other links Update of the User's profile FIC Telephone Numbers My Weather Data Folder Route Weather Data Regional Weather Data Local Weather Data To the Forecasts and Observations / NOTAM section
Request Generated 07/07/2015 at 17:46:40 UTC . Weather information available at that time is displayed.

METAR/TAF

HAVRE ST-PIERRE/QC    (show WxCam)

METAR CYGV 071700Z AUTO 09008KT 060V130 9SM CLR 17/13 A3002 RMK
SLP166 DENSITY ALT 200FT=
SPECI CYGV 071626Z AUTO 10008KT 060V150 9SM SCT012 17/13 A3003 RMK
SLP168 DENSITY ALT 200FT=
METAR CYGV 071600Z AUTO 14010KT 080V160 9SM BKN010 OVC017 16/13 A3004
RMK SLP173=
METAR CYGV 071500Z AUTO 11008KT 070V140 9SM OVC010 15/12 A3006 RMK
SLP180=

TAF AMD CYGV 071625Z 0716/0802 13012KT P6SM SCT010 TEMPO 0716/0719
BKN010
BECMG 0722/0724 16008KT
RMK FCST BASED ON AUTO OBS. NXT FCST BY 072000Z=
Your time UTC time
Weather data provided by Environment Canada and NAV CANADA